sensor_id;sensor_type;location;lat;lon;timestamp;P1;durP1;ratioP1;P2;durP2;ratioP2
19883;SDS011;10104;50.732;10.174;2023-08-06T00:00:00;3.38;;;2.90;;
19883;SDS011;10104;50.732;10.174;2023-08-06T00:02:22;6.43;;;2.50;;
19883;SDS011;10104;50.732;10.174;2023-08-06T00:04:43;7.35;;;2.55;;
19883;SDS011;10104;50.732;10.174;2023-08-06T00:07:05;3.75;;;3.20;;
19883;SDS011;10104;50.732;10.174;2023-08-06T00:09:26;7.20;;;3.22;;
19883;SDS011;10104;50.732;10.174;2023-08-06T00:11:48;7.18;;;3.00;;
19883;SDS011;10104;50.732;10.174;2023-08-06T00:14:10;6.60;;;2.90;;
19883;SDS011;10104;50.732;10.174;2023-08-06T00:16:32;7.53;;;3.50;;
19883;SDS011;10104;50.732;10.174;2023-08-06T00:18:53;6.43;;;4.13;;
19883;SDS011;10104;50.732;10.174;2023-08-06T00:21:15;11.90;;;4.90;;
19883;SDS011;10104;50.732;10.174;2023-08-06T00:23:36;4.47;;;3.88;;
19883;SDS011;10104;50.732;10.174;2023-08-06T00:25:58;5.72;;;3.38;;
19883;SDS011;10104;50.732;10.174;2023-08-06T00:28:19;6.95;;;4.47;;
19883;SDS011;10104;50.732;10.174;2023-08-06T00:30:41;7.80;;;4.45;;
19883;SDS011;10104;50.732;10.174;2023-08-06T00:33:02;7.55;;;4.43;;
19883;SDS011;10104;50.732;10.174;2023-08-06T00:35:24;9.60;;;4.55;;
19883;SDS011;10104;50.732;10.174;2023-08-06T00:37:46;6.47;;;5.10;;
19883;SDS011;10104;50.732;10.174;2023-08-06T00:40:08;5.78;;;4.00;;
19883;SDS011;10104;50.732;10.174;2023-08-06T00:42:30;3.90;;;3.50;;
19883;SDS011;10104;50.732;10.174;2023-08-06T00:44:51;5.38;;;3.65;;
19883;SDS011;10104;50.732;10.174;2023-08-06T00:47:13;6.68;;;3.40;;
19883;SDS011;10104;50.732;10.174;2023-08-06T00:49:35;8.77;;;3.35;;
19883;SDS011;10104;50.732;10.174;2023-08-06T00:51:58;4.68;;;2.83;;
19883;SDS011;10104;50.732;10.174;2023-08-06T00:54:20;3.38;;;3.05;;
19883;SDS011;10104;50.732;10.174;2023-08-06T00:56:42;4.95;;;3.08;;
19883;SDS011;10104;50.732;10.174;2023-08-06T00:59:04;8.63;;;4.97;;
19883;SDS011;10104;50.732;10.174;2023-08-06T01:01:27;11.02;;;6.88;;
19883;SDS011;10104;50.732;10.174;2023-08-06T01:03:49;8.43;;;4.72;;
19883;SDS011;10104;50.732;10.174;2023-08-06T01:06:11;13.65;;;5.82;;
19883;SDS011;10104;50.732;10.174;2023-08-06T01:08:40;10.85;;;5.22;;
19883;SDS011;10104;50.732;10.174;2023-08-06T01:13:56;6.07;;;3.80;;
19883;SDS011;10104;50.732;10.174;2023-08-06T01:16:23;6.70;;;3.40;;
19883;SDS011;10104;50.732;10.174;2023-08-06T01:18:46;5.07;;;3.10;;
19883;SDS011;10104;50.732;10.174;2023-08-06T01:21:10;6.53;;;3.53;;
19883;SDS011;10104;50.732;10.174;2023-08-06T01:23:32;6.57;;;3.75;;
19883;SDS011;10104;50.732;10.174;2023-08-06T01:28:59;5.13;;;3.22;;
19883;SDS011;10104;50.732;10.174;2023-08-06T01:31:30;11.32;;;3.42;;
19883;SDS011;10104;50.732;10.174;2023-08-06T01:33:52;5.18;;;3.20;;
19883;SDS011;10104;50.732;10.174;2023-08-06T01:36:18;8.85;;;3.72;;
19883;SDS011;10104;50.732;10.174;2023-08-06T01:38:41;6.47;;;3.15;;
19883;SDS011;10104;50.732;10.174;2023-08-06T01:41:02;5.55;;;3.03;;
19883;SDS011;10104;50.732;10.174;2023-08-06T01:43:24;6.47;;;3.40;;
19883;SDS011;10104;50.732;10.174;2023-08-06T01:45:45;4.45;;;2.88;;
19883;SDS011;10104;50.732;10.174;2023-08-06T01:48:07;5.38;;;3.30;;
19883;SDS011;10104;50.732;10.174;2023-08-06T01:50:28;6.72;;;3.67;;
19883;SDS011;10104;50.732;10.174;2023-08-06T01:52:50;4.72;;;3.20;;
19883;SDS011;10104;50.732;10.174;2023-08-06T01:55:11;5.88;;;3.28;;
19883;SDS011;10104;50.732;10.174;2023-08-06T01:57:42;6.07;;;3.13;;
19883;SDS011;10104;50.732;10.174;2023-08-06T02:00:16;5.47;;;3.42;;
19883;SDS011;10104;50.732;10.174;2023-08-06T02:05:39;7.20;;;3.72;;
19883;SDS011;10104;50.732;10.174;2023-08-06T02:08:02;6.50;;;3.78;;
19883;SDS011;10104;50.732;10.174;2023-08-06T02:10:23;5.68;;;3.35;;
19883;SDS011;10104;50.732;10.174;2023-08-06T02:12:45;7.30;;;3.95;;
19883;SDS011;10104;50.732;10.174;2023-08-06T02:15:06;7.63;;;3.63;;
19883;SDS011;10104;50.732;10.174;2023-08-06T02:17:28;10.98;;;4.00;;
19883;SDS011;10104;50.732;10.174;2023-08-06T02:19:50;6.40;;;3.40;;
19883;SDS011;10104;50.732;10.174;2023-08-06T02:22:11;6.93;;;3.55;;
19883;SDS011;10104;50.732;10.174;2023-08-06T02:24:33;4.85;;;3.65;;
19883;SDS011;10104;50.732;10.174;2023-08-06T02:26:54;6.60;;;3.60;;
19883;SDS011;10104;50.732;10.174;2023-08-06T02:29:17;5.97;;;3.88;;
19883;SDS011;10104;50.732;10.174;2023-08-06T02:31:39;5.13;;;3.53;;
19883;SDS011;10104;50.732;10.174;2023-08-06T02:34:01;4.40;;;3.78;;
19883;SDS011;10104;50.732;10.174;2023-08-06T02:36:22;10.13;;;3.97;;
19883;SDS011;10104;50.732;10.174;2023-08-06T02:38:44;7.30;;;3.83;;
19883;SDS011;10104;50.732;10.174;2023-08-06T02:41:05;9.40;;;3.60;;
19883;SDS011;10104;50.732;10.174;2023-08-06T02:43:27;4.28;;;3.88;;
19883;SDS011;10104;50.732;10.174;2023-08-06T02:45:48;7.70;;;3.70;;
19883;SDS011;10104;50.732;10.174;2023-08-06T02:48:10;8.93;;;4.00;;
19883;SDS011;10104;50.732;10.174;2023-08-06T02:50:37;4.95;;;3.90;;
19883;SDS011;10104;50.732;10.174;2023-08-06T02:52:59;9.13;;;4.30;;
19883;SDS011;10104;50.732;10.174;2023-08-06T02:55:20;6.03;;;3.83;;
19883;SDS011;10104;50.732;10.174;2023-08-06T02:57:42;5.05;;;3.80;;
19883;SDS011;10104;50.732;10.174;2023-08-06T03:00:04;6.43;;;3.50;;
19883;SDS011;10104;50.732;10.174;2023-08-06T03:02:26;7.63;;;3.58;;
19883;SDS011;10104;50.732;10.174;2023-08-06T03:04:47;7.75;;;3.75;;
19883;SDS011;10104;50.732;10.174;2023-08-06T03:07:09;10.15;;;4.15;;
19883;SDS011;10104;50.732;10.174;2023-08-06T03:09:30;10.40;;;3.80;;
19883;SDS011;10104;50.732;10.174;2023-08-06T03:11:52;5.05;;;2.67;;
19883;SDS011;10104;50.732;10.174;2023-08-06T03:14:14;10.68;;;2.97;;
19883;SDS011;10104;50.732;10.174;2023-08-06T03:16:35;5.00;;;3.42;;
19883;SDS011;10104;50.732;10.174;2023-08-06T03:18:57;8.75;;;3.05;;
19883;SDS011;10104;50.732;10.174;2023-08-06T03:21:18;7.95;;;3.40;;
19883;SDS011;10104;50.732;10.174;2023-08-06T03:23:40;7.55;;;2.95;;
19883;SDS011;10104;50.732;10.174;2023-08-06T03:26:02;8.95;;;3.45;;
19883;SDS011;10104;50.732;10.174;2023-08-06T03:28:24;4.65;;;2.88;;
19883;SDS011;10104;50.732;10.174;2023-08-06T03:30:45;2.90;;;2.50;;
19883;SDS011;10104;50.732;10.174;2023-08-06T03:33:07;3.70;;;2.50;;
19883;SDS011;10104;50.732;10.174;2023-08-06T03:35:29;8.57;;;3.45;;
19883;SDS011;10104;50.732;10.174;2023-08-06T03:37:50;6.30;;;2.90;;
19883;SDS011;10104;50.732;10.174;2023-08-06T03:40:12;4.65;;;3.42;;
19883;SDS011;10104;50.732;10.174;2023-08-06T03:42:33;8.65;;;3.20;;
19883;SDS011;10104;50.732;10.174;2023-08-06T03:44:55;4.03;;;2.72;;
19883;SDS011;10104;50.732;10.174;2023-08-06T03:47:16;6.40;;;3.22;;
19883;SDS011;10104;50.732;10.174;2023-08-06T03:49:38;3.70;;;2.63;;
19883;SDS011;10104;50.732;10.174;2023-08-06T03:52:00;6.70;;;3.05;;
19883;SDS011;10104;50.732;10.174;2023-08-06T03:54:21;3.83;;;3.10;;
19883;SDS011;10104;50.732;10.174;2023-08-06T03:56:42;6.32;;;3.30;;
19883;SDS011;10104;50.732;10.174;2023-08-06T03:59:04;7.88;;;4.32;;
19883;SDS011;10104;50.732;10.174;2023-08-06T04:01:25;7.72;;;3.70;;
19883;SDS011;10104;50.732;10.174;2023-08-06T04:03:47;5.80;;;3.30;;
19883;SDS011;10104;50.732;10.174;2023-08-06T04:06:08;8.32;;;2.90;;
19883;SDS011;10104;50.732;10.174;2023-08-06T04:08:30;9.68;;;3.35;;
19883;SDS011;10104;50.732;10.174;2023-08-06T04:10:53;10.88;;;3.15;;
19883;SDS011;10104;50.732;10.174;2023-08-06T04:13:14;9.65;;;3.30;;
19883;SDS011;10104;50.732;10.174;2023-08-06T04:15:36;10.32;;;3.40;;
19883;SDS011;10104;50.732;10.174;2023-08-06T04:17:57;4.20;;;2.80;;
19883;SDS011;10104;50.732;10.174;2023-08-06T04:20:19;4.80;;;3.20;;
19883;SDS011;10104;50.732;10.174;2023-08-06T04:22:41;10.93;;;3.85;;
19883;SDS011;10104;50.732;10.174;2023-08-06T04:25:02;5.43;;;3.25;;
19883;SDS011;10104;50.732;10.174;2023-08-06T04:27:24;7.60;;;3.10;;
19883;SDS011;10104;50.732;10.174;2023-08-06T04:29:45;13.75;;;3.03;;
19883;SDS011;10104;50.732;10.174;2023-08-06T04:32:08;5.90;;;2.83;;
19883;SDS011;10104;50.732;10.174;2023-08-06T04:34:30;8.05;;;3.60;;
19883;SDS011;10104;50.732;10.174;2023-08-06T04:36:52;11.55;;;3.83;;
19883;SDS011;10104;50.732;10.174;2023-08-06T04:39:13;5.10;;;3.28;;
19883;SDS011;10104;50.732;10.174;2023-08-06T04:41:35;5.45;;;3.33;;
19883;SDS011;10104;50.732;10.174;2023-08-06T04:43:56;5.43;;;3.10;;
19883;SDS011;10104;50.732;10.174;2023-08-06T04:46:18;3.67;;;3.33;;
19883;SDS011;10104;50.732;10.174;2023-08-06T04:48:40;4.30;;;3.40;;
19883;SDS011;10104;50.732;10.174;2023-08-06T04:51:01;6.85;;;4.55;;
19883;SDS011;10104;50.732;10.174;2023-08-06T04:53:23;4.40;;;4.00;;
19883;SDS011;10104;50.732;10.174;2023-08-06T04:55:44;6.40;;;3.72;;
19883;SDS011;10104;50.732;10.174;2023-08-06T04:58:06;4.80;;;3.35;;
19883;SDS011;10104;50.732;10.174;2023-08-06T05:00:28;6.88;;;3.17;;
19883;SDS011;10104;50.732;10.174;2023-08-06T05:02:49;6.90;;;3.13;;
19883;SDS011;10104;50.732;10.174;2023-08-06T05:05:11;5.90;;;3.08;;
19883;SDS011;10104;50.732;10.174;2023-08-06T05:07:33;5.68;;;3.20;;
19883;SDS011;10104;50.732;10.174;2023-08-06T05:09:54;4.45;;;3.35;;
19883;SDS011;10104;50.732;10.174;2023-08-06T05:12:16;4.60;;;3.47;;
19883;SDS011;10104;50.732;10.174;2023-08-06T05:14:37;5.38;;;3.78;;
19883;SDS011;10104;50.732;10.174;2023-08-06T05:16:59;4.40;;;3.30;;
19883;SDS011;10104;50.732;10.174;2023-08-06T05:19:20;5.28;;;3.47;;
19883;SDS011;10104;50.732;10.174;2023-08-06T05:21:42;4.85;;;3.40;;
19883;SDS011;10104;50.732;10.174;2023-08-06T05:24:03;5.00;;;3.80;;
19883;SDS011;10104;50.732;10.174;2023-08-06T05:26:25;5.60;;;3.88;;
19883;SDS011;10104;50.732;10.174;2023-08-06T05:28:46;8.02;;;5.78;;
19883;SDS011;10104;50.732;10.174;2023-08-06T05:31:08;8.23;;;5.03;;
19883;SDS011;10104;50.732;10.174;2023-08-06T05:33:30;5.22;;;4.10;;
19883;SDS011;10104;50.732;10.174;2023-08-06T05:35:51;9.55;;;5.80;;
19883;SDS011;10104;50.732;10.174;2023-08-06T05:38:13;8.48;;;5.38;;
19883;SDS011;10104;50.732;10.174;2023-08-06T05:40:34;9.85;;;5.68;;
19883;SDS011;10104;50.732;10.174;2023-08-06T05:42:56;12.15;;;5.50;;
19883;SDS011;10104;50.732;10.174;2023-08-06T05:45:17;8.48;;;5.00;;
19883;SDS011;10104;50.732;10.174;2023-08-06T05:47:40;8.00;;;5.15;;
19883;SDS011;10104;50.732;10.174;2023-08-06T05:50:01;7.38;;;5.03;;
19883;SDS011;10104;50.732;10.174;2023-08-06T05:52:23;8.95;;;4.90;;
19883;SDS011;10104;50.732;10.174;2023-08-06T05:54:44;6.50;;;4.15;;
19883;SDS011;10104;50.732;10.174;2023-08-06T05:57:06;4.43;;;4.03;;
19883;SDS011;10104;50.732;10.174;2023-08-06T05:59:28;5.50;;;3.78;;
19883;SDS011;10104;50.732;10.174;2023-08-06T06:01:49;6.13;;;3.60;;
19883;SDS011;10104;50.732;10.174;2023-08-06T06:04:11;4.80;;;3.50;;
19883;SDS011;10104;50.732;10.174;2023-08-06T06:06:32;11.98;;;4.18;;
19883;SDS011;10104;50.732;10.174;2023-08-06T06:08:54;7.55;;;4.18;;
19883;SDS011;10104;50.732;10.174;2023-08-06T06:11:15;7.65;;;3.90;;
19883;SDS011;10104;50.732;10.174;2023-08-06T06:13:37;4.70;;;3.58;;
19883;SDS011;10104;50.732;10.174;2023-08-06T06:15:58;7.03;;;3.65;;
19883;SDS011;10104;50.732;10.174;2023-08-06T06:18:20;4.50;;;3.63;;
19883;SDS011;10104;50.732;10.174;2023-08-06T06:20:41;6.20;;;3.95;;
19883;SDS011;10104;50.732;10.174;2023-08-06T06:23:03;4.57;;;3.53;;
19883;SDS011;10104;50.732;10.174;2023-08-06T06:25:24;5.25;;;3.60;;
19883;SDS011;10104;50.732;10.174;2023-08-06T06:27:46;6.32;;;3.83;;
19883;SDS011;10104;50.732;10.174;2023-08-06T06:30:07;3.55;;;3.25;;
19883;SDS011;10104;50.732;10.174;2023-08-06T06:32:29;7.78;;;3.10;;
19883;SDS011;10104;50.732;10.174;2023-08-06T06:34:51;4.53;;;3.33;;
19883;SDS011;10104;50.732;10.174;2023-08-06T06:37:12;4.35;;;3.80;;
19883;SDS011;10104;50.732;10.174;2023-08-06T06:39:34;3.55;;;3.25;;
19883;SDS011;10104;50.732;10.174;2023-08-06T06:41:55;3.90;;;3.40;;
19883;SDS011;10104;50.732;10.174;2023-08-06T06:44:17;4.13;;;3.40;;
19883;SDS011;10104;50.732;10.174;2023-08-06T06:46:41;3.13;;;2.83;;
19883;SDS011;10104;50.732;10.174;2023-08-06T06:49:02;5.80;;;2.90;;
19883;SDS011;10104;50.732;10.174;2023-08-06T06:51:24;3.22;;;2.83;;
19883;SDS011;10104;50.732;10.174;2023-08-06T06:53:45;4.55;;;3.17;;
19883;SDS011;10104;50.732;10.174;2023-08-06T06:56:07;4.45;;;3.20;;
19883;SDS011;10104;50.732;10.174;2023-08-06T06:58:28;4.68;;;3.50;;
19883;SDS011;10104;50.732;10.174;2023-08-06T07:00:50;6.45;;;3.20;;
19883;SDS011;10104;50.732;10.174;2023-08-06T07:03:12;6.75;;;3.33;;
19883;SDS011;10104;50.732;10.174;2023-08-06T07:05:33;3.85;;;3.10;;
19883;SDS011;10104;50.732;10.174;2023-08-06T07:07:55;4.82;;;3.08;;
19883;SDS011;10104;50.732;10.174;2023-08-06T07:10:16;5.22;;;3.03;;
19883;SDS011;10104;50.732;10.174;2023-08-06T07:12:38;4.55;;;2.75;;
19883;SDS011;10104;50.732;10.174;2023-08-06T07:14:59;6.40;;;3.13;;
19883;SDS011;10104;50.732;10.174;2023-08-06T07:17:21;3.03;;;2.75;;
19883;SDS011;10104;50.732;10.174;2023-08-06T07:19:42;3.58;;;2.95;;
19883;SDS011;10104;50.732;10.174;2023-08-06T07:22:04;5.93;;;2.88;;
19883;SDS011;10104;50.732;10.174;2023-08-06T07:24:26;2.92;;;2.53;;
19883;SDS011;10104;50.732;10.174;2023-08-06T07:26:47;4.43;;;2.60;;
19883;SDS011;10104;50.732;10.174;2023-08-06T07:29:09;3.50;;;2.75;;
19883;SDS011;10104;50.732;10.174;2023-08-06T07:31:31;3.85;;;2.50;;
19883;SDS011;10104;50.732;10.174;2023-08-06T07:33:52;4.35;;;3.22;;
19883;SDS011;10104;50.732;10.174;2023-08-06T07:36:14;5.63;;;3.13;;
19883;SDS011;10104;50.732;10.174;2023-08-06T07:38:36;5.65;;;2.88;;
19883;SDS011;10104;50.732;10.174;2023-08-06T07:41:01;3.55;;;3.08;;
19883;SDS011;10104;50.732;10.174;2023-08-06T07:43:23;2.50;;;2.30;;
19883;SDS011;10104;50.732;10.174;2023-08-06T07:45:44;5.63;;;3.17;;
19883;SDS011;10104;50.732;10.174;2023-08-06T07:48:06;3.53;;;2.55;;
19883;SDS011;10104;50.732;10.174;2023-08-06T07:50:27;6.05;;;2.50;;
19883;SDS011;10104;50.732;10.174;2023-08-06T07:52:49;2.88;;;2.50;;
19883;SDS011;10104;50.732;10.174;2023-08-06T07:55:10;2.63;;;2.38;;
19883;SDS011;10104;50.732;10.174;2023-08-06T07:57:32;4.40;;;2.60;;
19883;SDS011;10104;50.732;10.174;2023-08-06T07:59:54;3.35;;;2.40;;
19883;SDS011;10104;50.732;10.174;2023-08-06T08:02:16;3.60;;;2.33;;
19883;SDS011;10104;50.732;10.174;2023-08-06T08:04:38;6.80;;;2.83;;
19883;SDS011;10104;50.732;10.174;2023-08-06T08:06:59;5.70;;;2.72;;
19883;SDS011;10104;50.732;10.174;2023-08-06T08:09:21;3.15;;;2.13;;
19883;SDS011;10104;50.732;10.174;2023-08-06T08:11:42;3.42;;;1.90;;
19883;SDS011;10104;50.732;10.174;2023-08-06T08:14:04;2.55;;;1.73;;
19883;SDS011;10104;50.732;10.174;2023-08-06T08:16:25;3.08;;;1.67;;
19883;SDS011;10104;50.732;10.174;2023-08-06T08:18:47;4.93;;;2.33;;
19883;SDS011;10104;50.732;10.174;2023-08-06T08:21:08;4.07;;;2.08;;
19883;SDS011;10104;50.732;10.174;2023-08-06T08:23:30;4.05;;;2.70;;
19883;SDS011;10104;50.732;10.174;2023-08-06T08:25:52;3.70;;;2.35;;
19883;SDS011;10104;50.732;10.174;2023-08-06T08:28:14;4.88;;;2.70;;
19883;SDS011;10104;50.732;10.174;2023-08-06T08:30:35;3.17;;;2.45;;
19883;SDS011;10104;50.732;10.174;2023-08-06T08:32:57;6.65;;;2.53;;
19883;SDS011;10104;50.732;10.174;2023-08-06T08:35:18;6.00;;;2.60;;
19883;SDS011;10104;50.732;10.174;2023-08-06T08:37:42;5.43;;;2.50;;
19883;SDS011;10104;50.732;10.174;2023-08-06T08:40:05;5.40;;;2.42;;
19883;SDS011;10104;50.732;10.174;2023-08-06T08:42:28;4.50;;;2.50;;
19883;SDS011;10104;50.732;10.174;2023-08-06T08:44:49;2.40;;;2.00;;
19883;SDS011;10104;50.732;10.174;2023-08-06T08:47:11;3.72;;;2.20;;
19883;SDS011;10104;50.732;10.174;2023-08-06T08:49:34;3.72;;;2.17;;
19883;SDS011;10104;50.732;10.174;2023-08-06T08:51:57;3.10;;;2.10;;
19883;SDS011;10104;50.732;10.174;2023-08-06T08:54:21;4.28;;;1.83;;
19883;SDS011;10104;50.732;10.174;2023-08-06T08:56:44;1.83;;;1.58;;
19883;SDS011;10104;50.732;10.174;2023-08-06T08:59:06;2.90;;;2.08;;
19883;SDS011;10104;50.732;10.174;2023-08-06T09:01:27;6.78;;;2.05;;
19883;SDS011;10104;50.732;10.174;2023-08-06T09:03:50;9.13;;;2.58;;
19883;SDS011;10104;50.732;10.174;2023-08-06T09:06:13;6.60;;;2.40;;
19883;SDS011;10104;50.732;10.174;2023-08-06T09:08:36;7.00;;;2.30;;
19883;SDS011;10104;50.732;10.174;2023-08-06T09:11:00;5.00;;;2.10;;
19883;SDS011;10104;50.732;10.174;2023-08-06T09:13:24;2.35;;;2.10;;
19883;SDS011;10104;50.732;10.174;2023-08-06T09:15:45;4.25;;;1.80;;
19883;SDS011;10104;50.732;10.174;2023-08-06T09:18:10;7.43;;;2.13;;
19883;SDS011;10104;50.732;10.174;2023-08-06T09:20:32;5.82;;;2.17;;
19883;SDS011;10104;50.732;10.174;2023-08-06T09:22:55;2.97;;;1.40;;
19883;SDS011;10104;50.732;10.174;2023-08-06T09:25:21;5.10;;;2.10;;
19883;SDS011;10104;50.732;10.174;2023-08-06T09:27:46;7.13;;;1.90;;
19883;SDS011;10104;50.732;10.174;2023-08-06T09:30:08;3.58;;;1.88;;
19883;SDS011;10104;50.732;10.174;2023-08-06T09:32:44;5.43;;;1.70;;
19883;SDS011;10104;50.732;10.174;2023-08-06T09:35:16;2.00;;;1.48;;
19883;SDS011;10104;50.732;10.174;2023-08-06T09:37:40;2.42;;;1.50;;
19883;SDS011;10104;50.732;10.174;2023-08-06T09:40:02;3.33;;;1.30;;
19883;SDS011;10104;50.732;10.174;2023-08-06T09:42:23;1.55;;;1.27;;
19883;SDS011;10104;50.732;10.174;2023-08-06T09:44:45;4.80;;;1.65;;
19883;SDS011;10104;50.732;10.174;2023-08-06T09:47:06;5.55;;;1.67;;
19883;SDS011;10104;50.732;10.174;2023-08-06T09:49:40;2.08;;;1.42;;
19883;SDS011;10104;50.732;10.174;2023-08-06T09:52:03;2.95;;;1.30;;
19883;SDS011;10104;50.732;10.174;2023-08-06T09:54:26;2.55;;;1.40;;
19883;SDS011;10104;50.732;10.174;2023-08-06T09:56:50;2.42;;;1.30;;
19883;SDS011;10104;50.732;10.174;2023-08-06T09:59:13;2.53;;;1.73;;
19883;SDS011;10104;50.732;10.174;2023-08-06T10:01:37;2.05;;;1.45;;
19883;SDS011;10104;50.732;10.174;2023-08-06T10:03:58;2.97;;;1.30;;
19883;SDS011;10104;50.732;10.174;2023-08-06T10:06:24;1.70;;;1.17;;
19883;SDS011;10104;50.732;10.174;2023-08-06T10:08:47;1.75;;;1.15;;
19883;SDS011;10104;50.732;10.174;2023-08-06T10:11:09;3.22;;;1.55;;
19883;SDS011;10104;50.732;10.174;2023-08-06T10:13:32;1.00;;;0.90;;
19883;SDS011;10104;50.732;10.174;2023-08-06T10:15:55;1.70;;;1.10;;
19883;SDS011;10104;50.732;10.174;2023-08-06T10:18:16;1.40;;;1.20;;
19883;SDS011;10104;50.732;10.174;2023-08-06T10:20:42;1.70;;;1.30;;
19883;SDS011;10104;50.732;10.174;2023-08-06T10:23:04;1.08;;;0.80;;
19883;SDS011;10104;50.732;10.174;2023-08-06T10:25:35;1.10;;;0.70;;
19883;SDS011;10104;50.732;10.174;2023-08-06T10:28:11;1.05;;;0.50;;
19883;SDS011;10104;50.732;10.174;2023-08-06T10:30:44;0.50;;;0.50;;
19883;SDS011;10104;50.732;10.174;2023-08-06T10:33:06;0.95;;;0.60;;
19883;SDS011;10104;50.732;10.174;2023-08-06T10:35:32;1.65;;;0.45;;
19883;SDS011;10104;50.732;10.174;2023-08-06T10:38:12;1.80;;;0.60;;
19883;SDS011;10104;50.732;10.174;2023-08-06T10:40:41;1.60;;;0.50;;
19883;SDS011;10104;50.732;10.174;2023-08-06T10:43:11;0.90;;;0.60;;
19883;SDS011;10104;50.732;10.174;2023-08-06T10:45:51;1.67;;;0.70;;
19883;SDS011;10104;50.732;10.174;2023-08-06T10:48:12;0.43;;;0.43;;
19883;SDS011;10104;50.732;10.174;2023-08-06T10:50:50;0.55;;;0.55;;
19883;SDS011;10104;50.732;10.174;2023-08-06T10:53:11;0.38;;;0.38;;
19883;SDS011;10104;50.732;10.174;2023-08-06T10:55:33;1.98;;;0.52;;
19883;SDS011;10104;50.732;10.174;2023-08-06T10:57:56;0.40;;;0.40;;
19883;SDS011;10104;50.732;10.174;2023-08-06T11:00:19;0.82;;;0.32;;
19883;SDS011;10104;50.732;10.174;2023-08-06T11:02:42;0.45;;;0.43;;
19883;SDS011;10104;50.732;10.174;2023-08-06T11:05:08;0.38;;;0.38;;
19883;SDS011;10104;50.732;10.174;2023-08-06T11:07:30;0.40;;;0.40;;
19883;SDS011;10104;50.732;10.174;2023-08-06T11:09:52;0.60;;;0.52;;
19883;SDS011;10104;50.732;10.174;2023-08-06T11:12:18;1.40;;;0.40;;
19883;SDS011;10104;50.732;10.174;2023-08-06T11:14:40;1.60;;;0.50;;
19883;SDS011;10104;50.732;10.174;2023-08-06T11:17:02;2.22;;;0.70;;
19883;SDS011;10104;50.732;10.174;2023-08-06T11:19:23;2.30;;;0.73;;
19883;SDS011;10104;50.732;10.174;2023-08-06T11:21:45;0.32;;;0.32;;
19883;SDS011;10104;50.732;10.174;2023-08-06T11:24:09;0.35;;;0.35;;
19883;SDS011;10104;50.732;10.174;2023-08-06T11:26:31;0.75;;;0.50;;
19883;SDS011;10104;50.732;10.174;2023-08-06T11:28:53;1.23;;;0.57;;
19883;SDS011;10104;50.732;10.174;2023-08-06T11:31:18;1.73;;;0.50;;
19883;SDS011;10104;50.732;10.174;2023-08-06T11:33:44;0.20;;;0.20;;
19883;SDS011;10104;50.732;10.174;2023-08-06T11:36:05;0.35;;;0.35;;
19883;SDS011;10104;50.732;10.174;2023-08-06T11:38:28;0.32;;;0.25;;
19883;SDS011;10104;50.732;10.174;2023-08-06T11:40:50;0.50;;;0.30;;
19883;SDS011;10104;50.732;10.174;2023-08-06T11:43:12;0.98;;;0.45;;
19883;SDS011;10104;50.732;10.174;2023-08-06T11:45:37;0.52;;;0.30;;
19883;SDS011;10104;50.732;10.174;2023-08-06T11:47:59;1.70;;;0.50;;
19883;SDS011;10104;50.732;10.174;2023-08-06T11:50:24;1.35;;;1.00;;
19883;SDS011;10104;50.732;10.174;2023-08-06T11:52:46;1.90;;;0.88;;
19883;SDS011;10104;50.732;10.174;2023-08-06T11:55:08;0.70;;;0.60;;
19883;SDS011;10104;50.732;10.174;2023-08-06T11:57:33;1.08;;;0.55;;
19883;SDS011;10104;50.732;10.174;2023-08-06T12:00:17;1.85;;;0.80;;
19883;SDS011;10104;50.732;10.174;2023-08-06T12:02:41;2.08;;;0.57;;
19883;SDS011;10104;50.732;10.174;2023-08-06T12:05:04;1.27;;;0.30;;
19883;SDS011;10104;50.732;10.174;2023-08-06T12:07:32;1.70;;;0.50;;
19883;SDS011;10104;50.732;10.174;2023-08-06T12:09:54;1.25;;;0.52;;
19883;SDS011;10104;50.732;10.174;2023-08-06T12:12:15;0.40;;;0.40;;
19883;SDS011;10104;50.732;10.174;2023-08-06T12:14:37;0.40;;;0.30;;
19883;SDS011;10104;50.732;10.174;2023-08-06T12:16:59;0.40;;;0.40;;
19883;SDS011;10104;50.732;10.174;2023-08-06T12:19:21;0.88;;;0.50;;
19883;SDS011;10104;50.732;10.174;2023-08-06T12:21:47;1.05;;;0.55;;
19883;SDS011;10104;50.732;10.174;2023-08-06T12:24:08;0.73;;;0.50;;
19883;SDS011;10104;50.732;10.174;2023-08-06T12:26:31;0.30;;;0.30;;
19883;SDS011;10104;50.732;10.174;2023-08-06T12:28:52;0.30;;;0.30;;
19883;SDS011;10104;50.732;10.174;2023-08-06T12:31:16;0.52;;;0.52;;
19883;SDS011;10104;50.732;10.174;2023-08-06T12:33:37;0.70;;;0.40;;
19883;SDS011;10104;50.732;10.174;2023-08-06T12:35:59;10.57;;;9.48;;
19883;SDS011;10104;50.732;10.174;2023-08-06T12:38:20;3.35;;;1.50;;
19883;SDS011;10104;50.732;10.174;2023-08-06T12:40:42;0.80;;;0.40;;
19883;SDS011;10104;50.732;10.174;2023-08-06T12:43:04;0.40;;;0.32;;
19883;SDS011;10104;50.732;10.174;2023-08-06T12:45:26;0.55;;;0.30;;
19883;SDS011;10104;50.732;10.174;2023-08-06T12:47:47;0.40;;;0.40;;
19883;SDS011;10104;50.732;10.174;2023-08-06T12:50:10;1.70;;;0.70;;
19883;SDS011;10104;50.732;10.174;2023-08-06T12:52:31;0.57;;;0.40;;
19883;SDS011;10104;50.732;10.174;2023-08-06T12:54:53;1.38;;;0.55;;
19883;SDS011;10104;50.732;10.174;2023-08-06T12:57:15;1.67;;;0.70;;
19883;SDS011;10104;50.732;10.174;2023-08-06T12:59:37;0.50;;;0.50;;
19883;SDS011;10104;50.732;10.174;2023-08-06T13:01:59;0.52;;;0.50;;
19883;SDS011;10104;50.732;10.174;2023-08-06T13:04:21;0.45;;;0.40;;
19883;SDS011;10104;50.732;10.174;2023-08-06T13:06:43;1.08;;;0.50;;
19883;SDS011;10104;50.732;10.174;2023-08-06T13:09:11;1.15;;;0.70;;
19883;SDS011;10104;50.732;10.174;2023-08-06T13:11:34;4.15;;;1.05;;
19883;SDS011;10104;50.732;10.174;2023-08-06T13:14:06;11.27;;;1.42;;
19883;SDS011;10104;50.732;10.174;2023-08-06T13:16:30;4.15;;;1.02;;
19883;SDS011;10104;50.732;10.174;2023-08-06T13:18:52;3.40;;;1.20;;
19883;SDS011;10104;50.732;10.174;2023-08-06T13:21:13;3.72;;;0.75;;
19883;SDS011;10104;50.732;10.174;2023-08-06T13:23:35;2.15;;;0.70;;
19883;SDS011;10104;50.732;10.174;2023-08-06T13:25:56;1.15;;;0.63;;
19883;SDS011;10104;50.732;10.174;2023-08-06T13:28:18;2.83;;;0.85;;
19883;SDS011;10104;50.732;10.174;2023-08-06T13:30:40;3.78;;;0.60;;
19883;SDS011;10104;50.732;10.174;2023-08-06T13:33:03;1.05;;;0.60;;
19883;SDS011;10104;50.732;10.174;2023-08-06T13:35:27;2.50;;;0.60;;
19883;SDS011;10104;50.732;10.174;2023-08-06T13:37:49;3.78;;;0.50;;
19883;SDS011;10104;50.732;10.174;2023-08-06T13:40:10;1.63;;;0.60;;
19883;SDS011;10104;50.732;10.174;2023-08-06T13:42:32;1.75;;;0.60;;
19883;SDS011;10104;50.732;10.174;2023-08-06T13:44:54;0.65;;;0.63;;
19883;SDS011;10104;50.732;10.174;2023-08-06T13:47:23;1.63;;;0.70;;
19883;SDS011;10104;50.732;10.174;2023-08-06T13:49:44;0.75;;;0.40;;
19883;SDS011;10104;50.732;10.174;2023-08-06T13:52:06;0.40;;;0.40;;
19883;SDS011;10104;50.732;10.174;2023-08-06T13:54:42;0.45;;;0.40;;
19883;SDS011;10104;50.732;10.174;2023-08-06T13:57:03;1.50;;;0.63;;
19883;SDS011;10104;50.732;10.174;2023-08-06T13:59:25;3.33;;;0.70;;
19883;SDS011;10104;50.732;10.174;2023-08-06T14:01:46;1.23;;;0.50;;
19883;SDS011;10104;50.732;10.174;2023-08-06T14:04:13;1.20;;;0.60;;
19883;SDS011;10104;50.732;10.174;2023-08-06T14:06:35;2.67;;;0.50;;
19883;SDS011;10104;50.732;10.174;2023-08-06T14:08:56;0.70;;;0.60;;
19883;SDS011;10104;50.732;10.174;2023-08-06T14:11:18;0.52;;;0.40;;
19883;SDS011;10104;50.732;10.174;2023-08-06T14:13:39;1.25;;;0.60;;